createdAt,value
2023-04-07T00:02:48.994Z,99607.88
2023-04-07T00:07:52.423Z,99617.78
2023-04-07T00:12:47.217Z,99600.19
2023-04-07T00:17:38.900Z,99598.81
2023-04-07T00:22:30.555Z,99600.75
2023-04-07T00:27:23.318Z,99605.97
2023-04-07T00:32:14.896Z,99611.59
2023-04-07T00:37:06.649Z,99627.63
2023-04-07T00:41:58.267Z,99618.75
2023-04-07T00:46:50.039Z,99615.38
2023-04-07T00:51:41.722Z,99623.19
2023-04-07T00:56:33.371Z,99619.19
2023-04-07T01:01:39.591Z,99598.22
2023-04-07T01:06:35.490Z,99587.28
2023-04-07T01:11:32.937Z,99579.41
2023-04-07T01:16:31.520Z,99586.47
2023-04-07T01:21:28.790Z,99576.72
2023-04-07T01:26:31.267Z,99591.47
2023-04-07T01:31:23.554Z,99607.78
2023-04-07T01:36:16.505Z,99594.06
2023-04-07T01:41:10.150Z,99598.59
2023-04-07T01:46:02.817Z,99588.56
2023-04-07T01:50:55.753Z,99592.31
2023-04-07T01:55:47.401Z,99587.75
2023-04-07T02:00:39.652Z,99588.94
2023-04-07T02:05:32.506Z,99598.59
2023-04-07T02:10:27.058Z,99597.47
2023-04-07T02:15:19.937Z,99603.56
2023-04-07T02:20:12.691Z,99588.34
2023-04-07T02:25:27.257Z,99591.09
2023-04-07T02:30:19.384Z,99588.66
2023-04-07T02:35:12.219Z,99594.56
2023-04-07T02:40:05.009Z,99592.78
2023-04-07T02:44:56.780Z,99592.31
2023-04-07T02:49:48.377Z,99595.53
2023-04-07T02:54:40.047Z,99595.25
2023-04-07T02:59:31.715Z,99592.03
2023-04-07T03:04:23.387Z,99597.84
2023-04-07T03:09:15.507Z,99603.03
2023-04-07T03:14:07.186Z,99595.34
2023-04-07T03:18:58.886Z,99591.66
2023-04-07T03:23:50.674Z,99580.06
2023-04-07T03:28:42.285Z,99581.75
2023-04-07T03:33:34.089Z,99585.06
2023-04-07T03:38:26.676Z,99599.00
2023-04-07T03:43:18.270Z,99595.28
2023-04-07T03:48:13.016Z,99600.00
2023-04-07T03:53:04.672Z,99610.09
2023-04-07T03:57:56.531Z,99615.28
2023-04-07T04:02:48.326Z,99617.78
2023-04-07T04:07:39.980Z,99627.03
2023-04-07T04:12:31.583Z,99628.19
2023-04-07T04:17:23.266Z,99622.00
2023-04-07T04:22:14.985Z,99628.19
2023-04-07T04:27:06.577Z,99631.91
2023-04-07T04:31:58.130Z,99630.41
2023-04-07T04:36:50.040Z,99627.91
2023-04-07T04:41:41.718Z,99622.91
2023-04-07T04:46:33.590Z,99636.03
2023-04-07T04:51:26.178Z,99645.06
2023-04-07T04:56:17.801Z,99648.63
2023-04-07T05:01:09.524Z,99648.88
2023-04-07T05:06:01.296Z,99658.78
2023-04-07T05:10:53.053Z,99661.00
2023-04-07T05:15:44.651Z,99653.81
2023-04-07T05:20:36.415Z,99656.69
2023-04-07T05:25:28.016Z,99660.72
2023-04-07T05:30:19.787Z,99666.06
2023-04-07T05:35:11.628Z,99674.94
2023-04-07T05:40:03.370Z,99677.97
2023-04-07T05:44:56.578Z,99681.84
2023-04-07T05:49:48.240Z,99694.91
2023-04-07T05:54:42.846Z,99697.91
2023-04-07T05:59:35.167Z,99706.25
2023-04-07T06:04:26.940Z,99708.78
2023-04-07T06:09:18.565Z,99708.06
2023-04-07T06:14:10.170Z,99715.84
2023-04-07T06:19:01.827Z,99716.06
2023-04-07T06:23:53.386Z,99710.88
2023-04-07T06:28:45.193Z,99719.09
2023-04-07T06:33:36.855Z,99727.16
2023-04-07T06:38:28.529Z,99735.03
2023-04-07T06:43:20.360Z,99728.94
2023-04-07T06:48:12.049Z,99738.19
2023-04-07T06:53:03.702Z,99742.03
2023-04-07T06:57:55.540Z,99745.94
2023-04-07T07:02:47.264Z,99742.38
2023-04-07T07:07:40.323Z,99747.72
2023-04-07T07:12:32.482Z,99756.16
2023-04-07T07:17:24.123Z,99762.19
2023-04-07T07:22:15.942Z,99757.53
2023-04-07T07:27:07.527Z,99763.38
2023-04-07T07:31:59.243Z,99754.44
2023-04-07T07:36:50.855Z,99751.56
2023-04-07T07:41:42.574Z,99755.50
2023-04-07T07:46:34.355Z,99764.69
2023-04-07T07:51:26.104Z,99771.41
2023-04-07T07:56:17.687Z,99766.38
2023-04-07T08:01:09.425Z,99776.09
2023-04-07T08:06:01.243Z,99768.66
2023-04-07T08:10:52.904Z,99768.44
2023-04-07T08:15:44.554Z,99774.03
2023-04-07T08:20:36.332Z,99775.41
2023-04-07T08:25:28.855Z,99771.19
2023-04-07T08:30:22.350Z,99783.25
2023-04-07T08:35:14.146Z,99776.97
2023-04-07T08:40:06.763Z,99790.63
2023-04-07T08:45:03.551Z,99793.94
2023-04-07T08:49:58.254Z,99792.41
2023-04-07T08:54:50.157Z,99794.00
2023-04-07T08:59:45.372Z,99785.47
2023-04-07T09:04:37.362Z,99789.13
2023-04-07T09:09:29.743Z,99789.88
2023-04-07T09:14:22.207Z,99789.91
2023-04-07T09:19:13.915Z,99775.75
2023-04-07T09:24:27.436Z,99782.34
2023-04-07T09:29:21.210Z,99786.84
2023-04-07T09:34:34.198Z,99796.34
2023-04-07T09:39:26.793Z,99796.88
2023-04-07T09:44:22.714Z,99786.53
2023-04-07T09:49:14.488Z,99779.06
2023-04-07T09:54:07.419Z,99776.44
2023-04-07T09:59:00.042Z,99782.28
2023-04-07T10:03:52.962Z,99785.34
2023-04-07T10:08:44.633Z,99778.88
2023-04-07T10:13:39.547Z,99771.75
2023-04-07T10:18:32.639Z,99777.44
2023-04-07T10:24:10.729Z,99771.97
2023-04-07T10:29:11.733Z,99774.66
2023-04-07T10:34:03.831Z,99781.34
2023-04-07T10:39:07.358Z,99776.53
2023-04-07T10:43:59.034Z,99781.31
2023-04-07T10:49:10.268Z,99781.06
2023-04-07T10:54:23.152Z,99783.66
2023-04-07T10:59:15.564Z,99786.28
2023-04-07T11:04:08.835Z,99774.50
2023-04-07T11:09:00.784Z,99780.19
2023-04-07T11:13:52.421Z,99773.66
2023-04-07T11:18:45.275Z,99786.22
2023-04-07T11:23:41.225Z,99771.78
2023-04-07T11:28:33.170Z,99773.63
2023-04-07T11:33:28.078Z,99771.91
2023-04-07T11:38:21.256Z,99757.13
2023-04-07T11:43:19.277Z,99761.53
2023-04-07T11:48:32.536Z,99758.25
2023-04-07T11:53:28.789Z,99761.13
2023-04-07T11:58:20.495Z,99758.31
2023-04-07T12:03:16.377Z,99752.44
2023-04-07T12:08:08.277Z,99747.56
2023-04-07T12:12:59.959Z,99759.09
2023-04-07T12:17:51.750Z,99745.19
2023-04-07T12:22:43.737Z,99741.53
2023-04-07T12:27:42.771Z,99740.13
2023-04-07T12:32:35.981Z,99743.91
2023-04-07T12:37:27.652Z,99744.53
2023-04-07T12:42:19.227Z,99750.09
2023-04-07T12:47:12.394Z,99746.63
2023-04-07T12:52:04.076Z,99747.44
2023-04-07T12:56:56.964Z,99738.66
2023-04-07T13:01:50.887Z,99744.84
2023-04-07T13:06:42.794Z,99752.72
2023-04-07T13:11:34.444Z,99757.06
2023-04-07T13:16:26.301Z,99746.41
2023-04-07T13:26:12.427Z,99748.38
2023-04-07T13:31:04.184Z,99759.41
2023-04-07T13:35:55.969Z,99745.56
2023-04-07T13:40:49.683Z,99756.00
2023-04-07T13:45:41.424Z,99748.81
2023-04-07T13:50:37.512Z,99739.19
2023-04-07T13:55:29.085Z,99748.53
2023-04-07T14:00:21.014Z,99734.75
2023-04-07T14:05:12.781Z,99734.19
2023-04-07T14:10:04.798Z,99733.84
2023-04-07T14:14:57.151Z,99727.25
2023-04-07T14:19:48.791Z,99724.09
2023-04-07T14:24:40.541Z,99730.66
2023-04-07T14:29:32.314Z,99725.16
2023-04-07T14:34:23.928Z,99731.38
2023-04-07T14:39:15.594Z,99727.03
2023-04-07T14:44:07.207Z,99723.47
2023-04-07T14:48:58.849Z,99725.56
2023-04-07T14:53:55.899Z,99720.25
2023-04-07T14:58:47.683Z,99720.69
2023-04-07T15:03:39.491Z,99726.66
2023-04-07T15:08:31.212Z,99734.31
2023-04-07T15:13:22.784Z,99733.69
2023-04-07T15:18:14.464Z,99729.38
2023-04-07T15:23:06.208Z,99719.31
2023-04-07T15:27:57.861Z,99717.88
2023-04-07T15:33:04.382Z,99720.97
2023-04-07T15:37:56.068Z,99709.28
2023-04-07T15:42:47.847Z,99703.56
2023-04-07T15:47:39.586Z,99712.75
2023-04-07T15:52:31.387Z,99731.50
2023-04-07T15:57:23.062Z,99730.84
2023-04-07T16:02:15.834Z,99719.66
2023-04-07T16:07:07.638Z,99727.53
2023-04-07T16:12:00.497Z,99730.09
2023-04-07T16:16:54.529Z,99728.44
2023-04-07T16:21:46.398Z,99720.22
2023-04-07T16:26:38.156Z,99723.56
2023-04-07T16:31:29.889Z,99732.41
2023-04-07T16:36:21.531Z,99728.84
2023-04-07T16:41:13.413Z,99727.94
2023-04-07T16:46:06.019Z,99725.69
2023-04-07T16:50:57.677Z,99726.38
2023-04-07T16:55:49.307Z,99727.59
2023-04-07T17:00:40.922Z,99723.69
2023-04-07T17:05:32.549Z,99730.97
2023-04-07T17:10:24.326Z,99729.56
2023-04-07T17:15:16.154Z,99731.97
2023-04-07T17:20:08.354Z,99739.22
2023-04-07T17:24:59.916Z,99739.63
2023-04-07T17:29:51.612Z,99737.72
2023-04-07T17:34:43.192Z,99739.78
2023-04-07T17:39:34.837Z,99739.91
2023-04-07T17:44:26.445Z,99743.84
2023-04-07T17:49:18.132Z,99751.22
2023-04-07T17:54:09.737Z,99762.84
2023-04-07T17:59:01.444Z,99753.50
2023-04-07T18:03:53.648Z,99761.22
2023-04-07T18:08:47.704Z,99755.06
2023-04-07T18:13:39.416Z,99769.16
2023-04-07T18:18:30.993Z,99779.72
2023-04-07T18:23:22.641Z,99779.25
2023-04-07T18:28:14.279Z,99786.59
2023-04-07T18:33:05.963Z,99795.13
2023-04-07T18:37:59.166Z,99790.50
2023-04-07T18:42:51.740Z,99798.41
2023-04-07T18:47:43.471Z,99807.94
2023-04-07T18:52:35.233Z,99806.28
2023-04-07T18:57:27.228Z,99798.63
2023-04-07T19:02:18.945Z,99816.41
2023-04-07T19:07:10.622Z,99811.63
2023-04-07T19:12:02.361Z,99818.34
2023-04-07T19:16:54.101Z,99824.81
2023-04-07T19:21:46.212Z,99829.41
2023-04-07T19:26:38.015Z,99835.84
2023-04-07T19:31:30.787Z,99845.03
2023-04-07T19:36:22.475Z,99850.59
2023-04-07T19:41:14.134Z,99856.81
2023-04-07T19:46:06.521Z,99857.53
2023-04-07T19:50:58.224Z,99863.22
2023-04-07T19:55:50.632Z,99862.25
2023-04-07T20:00:44.307Z,99861.91
2023-04-07T20:05:37.201Z,99859.44
2023-04-07T20:10:29.115Z,99861.97
2023-04-07T20:15:22.054Z,99874.06
2023-04-07T20:20:14.318Z,99868.47
2023-04-07T20:25:06.829Z,99877.84
2023-04-07T20:29:58.521Z,99879.28
2023-04-07T20:34:53.094Z,99881.38
2023-04-07T20:39:44.733Z,99881.13
2023-04-07T20:44:37.494Z,99886.53
2023-04-07T20:49:29.286Z,99896.72
2023-04-07T20:54:20.934Z,99888.19
2023-04-07T20:59:12.866Z,99889.63
2023-04-07T21:04:04.627Z,99902.28
2023-04-07T21:08:56.629Z,99905.97
2023-04-07T21:13:48.356Z,99909.00
2023-04-07T21:18:40.061Z,99909.59
2023-04-07T21:23:32.066Z,99909.72
2023-04-07T21:28:23.727Z,99917.78
2023-04-07T21:33:15.437Z,99918.16
2023-04-07T21:38:07.052Z,99919.72
2023-04-07T21:42:58.740Z,99919.44
2023-04-07T21:47:50.663Z,99918.53
2023-04-07T21:52:42.716Z,99916.41
2023-04-07T21:57:34.576Z,99923.47
2023-04-07T22:02:26.562Z,99918.44
2023-04-07T22:07:18.311Z,99920.69
2023-04-07T22:12:09.994Z,99925.63
2023-04-07T22:17:01.755Z,99924.09
2023-04-07T22:21:54.222Z,99916.59
2023-04-07T22:26:45.964Z,99920.88
2023-04-07T22:31:37.677Z,99919.34
2023-04-07T22:36:29.873Z,99926.38
2023-04-07T22:41:22.430Z,99928.41
2023-04-07T22:46:15.974Z,99928.53
2023-04-07T22:51:07.653Z,99919.16
2023-04-07T22:55:59.372Z,99924.53
2023-04-07T23:00:51.053Z,99929.50
2023-04-07T23:05:42.815Z,99942.06
2023-04-07T23:10:34.445Z,99934.09
2023-04-07T23:15:27.437Z,99935.50
2023-04-07T23:20:19.082Z,99938.06
2023-04-07T23:25:10.814Z,99941.31
2023-04-07T23:30:03.347Z,99940.19
2023-04-07T23:34:56.166Z,99935.00
2023-04-07T23:39:47.977Z,99931.53
2023-04-07T23:44:40.090Z,99944.00
2023-04-07T23:49:33.016Z,99935.91
2023-04-07T23:54:24.853Z,99940.84
2023-04-07T23:59:19.334Z,99944.38
